sensor_id;sensor_type;location;lat;lon;timestamp;P1;durP1;ratioP1;P2;durP2;ratioP2
12048;SDS011;6085;49.452;8.502;2023-02-15T00:00:38;59.08;;;23.30;;
12048;SDS011;6085;49.452;8.502;2023-02-15T00:04:39;50.25;;;20.58;;
12048;SDS011;6085;49.452;8.502;2023-02-15T00:08:47;48.35;;;20.92;;
12048;SDS011;6085;49.452;8.502;2023-02-15T00:12:50;51.75;;;21.98;;
12048;SDS011;6085;49.452;8.502;2023-02-15T00:16:52;54.33;;;22.00;;
12048;SDS011;6085;49.452;8.502;2023-02-15T00:20:54;62.92;;;21.83;;
12048;SDS011;6085;49.452;8.502;2023-02-15T00:24:56;57.65;;;20.83;;
12048;SDS011;6085;49.452;8.502;2023-02-15T00:29:00;46.30;;;20.58;;
12048;SDS011;6085;49.452;8.502;2023-02-15T00:33:02;51.25;;;20.33;;
12048;SDS011;6085;49.452;8.502;2023-02-15T00:37:04;57.13;;;20.48;;
12048;SDS011;6085;49.452;8.502;2023-02-15T00:41:06;51.42;;;19.25;;
12048;SDS011;6085;49.452;8.502;2023-02-15T00:45:10;47.80;;;19.52;;
12048;SDS011;6085;49.452;8.502;2023-02-15T00:49:12;50.22;;;19.63;;
12048;SDS011;6085;49.452;8.502;2023-02-15T00:53:14;46.42;;;19.55;;
12048;SDS011;6085;49.452;8.502;2023-02-15T00:57:16;44.25;;;20.38;;
12048;SDS011;6085;49.452;8.502;2023-02-15T01:01:20;45.17;;;19.40;;
12048;SDS011;6085;49.452;8.502;2023-02-15T01:05:22;56.58;;;20.23;;
12048;SDS011;6085;49.452;8.502;2023-02-15T01:09:24;49.28;;;19.95;;
12048;SDS011;6085;49.452;8.502;2023-02-15T01:13:26;50.75;;;19.73;;
12048;SDS011;6085;49.452;8.502;2023-02-15T01:17:29;54.72;;;18.20;;
12048;SDS011;6085;49.452;8.502;2023-02-15T01:21:32;35.65;;;17.27;;
12048;SDS011;6085;49.452;8.502;2023-02-15T01:25:34;43.53;;;18.23;;
12048;SDS011;6085;49.452;8.502;2023-02-15T01:29:37;37.03;;;18.45;;
12048;SDS011;6085;49.452;8.502;2023-02-15T01:33:40;37.10;;;16.95;;
12048;SDS011;6085;49.452;8.502;2023-02-15T01:37:42;50.47;;;19.27;;
12048;SDS011;6085;49.452;8.502;2023-02-15T01:41:44;42.47;;;18.13;;
12048;SDS011;6085;49.452;8.502;2023-02-15T01:45:46;41.45;;;18.90;;
12048;SDS011;6085;49.452;8.502;2023-02-15T01:49:52;35.75;;;17.65;;
12048;SDS011;6085;49.452;8.502;2023-02-15T01:54:01;45.97;;;16.33;;
12048;SDS011;6085;49.452;8.502;2023-02-15T01:58:06;48.35;;;17.90;;
12048;SDS011;6085;49.452;8.502;2023-02-15T02:02:09;41.63;;;17.08;;
12048;SDS011;6085;49.452;8.502;2023-02-15T02:06:15;46.10;;;18.20;;
12048;SDS011;6085;49.452;8.502;2023-02-15T02:10:18;48.33;;;19.27;;
12048;SDS011;6085;49.452;8.502;2023-02-15T02:14:23;39.47;;;18.35;;
12048;SDS011;6085;49.452;8.502;2023-02-15T02:18:32;43.95;;;19.42;;
12048;SDS011;6085;49.452;8.502;2023-02-15T02:22:55;36.00;;;17.20;;
12048;SDS011;6085;49.452;8.502;2023-02-15T02:27:32;52.65;;;19.67;;
12048;SDS011;6085;49.452;8.502;2023-02-15T02:31:43;44.78;;;17.80;;
12048;SDS011;6085;49.452;8.502;2023-02-15T02:35:58;36.22;;;17.67;;
12048;SDS011;6085;49.452;8.502;2023-02-15T02:40:07;38.33;;;17.80;;
12048;SDS011;6085;49.452;8.502;2023-02-15T02:44:17;37.47;;;16.30;;
12048;SDS011;6085;49.452;8.502;2023-02-15T02:48:24;37.78;;;16.83;;
12048;SDS011;6085;49.452;8.502;2023-02-15T02:52:37;40.38;;;17.20;;
12048;SDS011;6085;49.452;8.502;2023-02-15T02:56:41;41.50;;;17.30;;
12048;SDS011;6085;49.452;8.502;2023-02-15T03:00:48;36.80;;;16.92;;
12048;SDS011;6085;49.452;8.502;2023-02-15T03:04:54;43.60;;;17.40;;
12048;SDS011;6085;49.452;8.502;2023-02-15T03:09:06;37.88;;;18.45;;
12048;SDS011;6085;49.452;8.502;2023-02-15T03:13:14;39.08;;;18.48;;
12048;SDS011;6085;49.452;8.502;2023-02-15T03:17:17;35.10;;;16.27;;
12048;SDS011;6085;49.452;8.502;2023-02-15T03:21:21;33.63;;;16.42;;
12048;SDS011;6085;49.452;8.502;2023-02-15T03:25:31;32.03;;;16.90;;
12048;SDS011;6085;49.452;8.502;2023-02-15T03:29:35;32.22;;;16.35;;
12048;SDS011;6085;49.452;8.502;2023-02-15T03:33:40;35.20;;;17.00;;
12048;SDS011;6085;49.452;8.502;2023-02-15T03:37:47;27.92;;;14.55;;
12048;SDS011;6085;49.452;8.502;2023-02-15T03:41:56;34.72;;;16.58;;
12048;SDS011;6085;49.452;8.502;2023-02-15T03:46:04;31.90;;;16.55;;
12048;SDS011;6085;49.452;8.502;2023-02-15T03:50:10;33.88;;;15.90;;
12048;SDS011;6085;49.452;8.502;2023-02-15T03:54:30;37.88;;;16.50;;
12048;SDS011;6085;49.452;8.502;2023-02-15T03:58:45;32.72;;;16.15;;
12048;SDS011;6085;49.452;8.502;2023-02-15T04:03:10;33.53;;;15.85;;
12048;SDS011;6085;49.452;8.502;2023-02-15T04:07:27;35.85;;;16.33;;
12048;SDS011;6085;49.452;8.502;2023-02-15T04:11:29;34.42;;;16.85;;
12048;SDS011;6085;49.452;8.502;2023-02-15T04:15:33;33.17;;;15.65;;
12048;SDS011;6085;49.452;8.502;2023-02-15T04:19:52;39.38;;;17.98;;
12048;SDS011;6085;49.452;8.502;2023-02-15T04:24:11;38.72;;;18.13;;
12048;SDS011;6085;49.452;8.502;2023-02-15T04:28:32;37.60;;;17.92;;
12048;SDS011;6085;49.452;8.502;2023-02-15T04:32:35;40.20;;;17.75;;
12048;SDS011;6085;49.452;8.502;2023-02-15T04:36:37;40.90;;;18.60;;
12048;SDS011;6085;49.452;8.502;2023-02-15T04:40:39;40.80;;;18.17;;
12048;SDS011;6085;49.452;8.502;2023-02-15T04:44:41;36.95;;;17.98;;
12048;SDS011;6085;49.452;8.502;2023-02-15T04:48:45;41.03;;;18.00;;
12048;SDS011;6085;49.452;8.502;2023-02-15T04:52:46;44.50;;;19.30;;
12048;SDS011;6085;49.452;8.502;2023-02-15T04:56:48;40.95;;;18.30;;
12048;SDS011;6085;49.452;8.502;2023-02-15T05:00:50;40.65;;;18.92;;
12048;SDS011;6085;49.452;8.502;2023-02-15T05:04:53;39.95;;;17.48;;
12048;SDS011;6085;49.452;8.502;2023-02-15T05:08:55;43.33;;;17.95;;
12048;SDS011;6085;49.452;8.502;2023-02-15T05:12:59;36.47;;;17.67;;
12048;SDS011;6085;49.452;8.502;2023-02-15T05:17:00;40.80;;;18.80;;
12048;SDS011;6085;49.452;8.502;2023-02-15T05:21:04;41.47;;;18.17;;
12048;SDS011;6085;49.452;8.502;2023-02-15T05:25:06;44.72;;;19.92;;
12048;SDS011;6085;49.452;8.502;2023-02-15T05:29:26;46.95;;;18.10;;
12048;SDS011;6085;49.452;8.502;2023-02-15T05:33:28;46.00;;;18.80;;
12048;SDS011;6085;49.452;8.502;2023-02-15T05:37:31;41.60;;;18.65;;
12048;SDS011;6085;49.452;8.502;2023-02-15T05:41:33;36.08;;;17.98;;
12048;SDS011;6085;49.452;8.502;2023-02-15T05:45:35;40.22;;;17.42;;
12048;SDS011;6085;49.452;8.502;2023-02-15T05:49:37;45.15;;;17.92;;
12048;SDS011;6085;49.452;8.502;2023-02-15T05:53:40;39.15;;;16.77;;
12048;SDS011;6085;49.452;8.502;2023-02-15T05:57:42;38.05;;;17.58;;
12048;SDS011;6085;49.452;8.502;2023-02-15T06:01:43;40.20;;;18.27;;
12048;SDS011;6085;49.452;8.502;2023-02-15T06:05:45;36.45;;;17.38;;
12048;SDS011;6085;49.452;8.502;2023-02-15T06:09:48;41.13;;;17.45;;
12048;SDS011;6085;49.452;8.502;2023-02-15T06:13:50;37.20;;;18.40;;
12048;SDS011;6085;49.452;8.502;2023-02-15T06:17:52;39.90;;;17.60;;
12048;SDS011;6085;49.452;8.502;2023-02-15T06:21:54;39.53;;;18.50;;
12048;SDS011;6085;49.452;8.502;2023-02-15T06:25:57;41.30;;;17.73;;
12048;SDS011;6085;49.452;8.502;2023-02-15T06:29:59;38.47;;;17.60;;
12048;SDS011;6085;49.452;8.502;2023-02-15T06:34:01;30.95;;;16.58;;
12048;SDS011;6085;49.452;8.502;2023-02-15T06:38:03;43.60;;;19.05;;
12048;SDS011;6085;49.452;8.502;2023-02-15T06:42:06;34.38;;;16.88;;
12048;SDS011;6085;49.452;8.502;2023-02-15T06:46:08;36.38;;;17.35;;
12048;SDS011;6085;49.452;8.502;2023-02-15T06:50:10;33.83;;;16.85;;
12048;SDS011;6085;49.452;8.502;2023-02-15T06:54:12;34.70;;;16.38;;
12048;SDS011;6085;49.452;8.502;2023-02-15T06:58:15;40.20;;;19.67;;
12048;SDS011;6085;49.452;8.502;2023-02-15T07:02:17;38.70;;;17.95;;
12048;SDS011;6085;49.452;8.502;2023-02-15T07:06:19;36.60;;;17.23;;
12048;SDS011;6085;49.452;8.502;2023-02-15T07:10:21;34.10;;;16.52;;
12048;SDS011;6085;49.452;8.502;2023-02-15T07:14:24;35.00;;;17.23;;
12048;SDS011;6085;49.452;8.502;2023-02-15T07:18:26;32.85;;;16.58;;
12048;SDS011;6085;49.452;8.502;2023-02-15T07:22:28;31.42;;;17.60;;
12048;SDS011;6085;49.452;8.502;2023-02-15T07:26:30;36.45;;;18.08;;
12048;SDS011;6085;49.452;8.502;2023-02-15T07:30:35;36.35;;;18.85;;
12048;SDS011;6085;49.452;8.502;2023-02-15T07:34:36;31.77;;;16.88;;
12048;SDS011;6085;49.452;8.502;2023-02-15T07:38:39;36.58;;;18.48;;
12048;SDS011;6085;49.452;8.502;2023-02-15T07:42:42;37.10;;;18.48;;
12048;SDS011;6085;49.452;8.502;2023-02-15T07:46:45;36.10;;;17.52;;
12048;SDS011;6085;49.452;8.502;2023-02-15T07:50:47;39.88;;;19.48;;
12048;SDS011;6085;49.452;8.502;2023-02-15T07:54:49;37.65;;;19.23;;
12048;SDS011;6085;49.452;8.502;2023-02-15T07:58:51;37.25;;;17.38;;
12048;SDS011;6085;49.452;8.502;2023-02-15T08:02:54;37.38;;;18.00;;
12048;SDS011;6085;49.452;8.502;2023-02-15T08:07:15;33.35;;;17.65;;
12048;SDS011;6085;49.452;8.502;2023-02-15T08:11:20;33.17;;;17.27;;
12048;SDS011;6085;49.452;8.502;2023-02-15T08:15:26;41.25;;;19.08;;
12048;SDS011;6085;49.452;8.502;2023-02-15T08:19:30;39.38;;;18.25;;
12048;SDS011;6085;49.452;8.502;2023-02-15T08:23:32;34.03;;;17.60;;
12048;SDS011;6085;49.452;8.502;2023-02-15T08:27:34;36.72;;;17.58;;
12048;SDS011;6085;49.452;8.502;2023-02-15T08:31:36;34.33;;;16.88;;
12048;SDS011;6085;49.452;8.502;2023-02-15T08:35:42;32.78;;;17.90;;
12048;SDS011;6085;49.452;8.502;2023-02-15T08:39:44;32.55;;;16.40;;
12048;SDS011;6085;49.452;8.502;2023-02-15T08:43:46;32.50;;;17.42;;
12048;SDS011;6085;49.452;8.502;2023-02-15T08:47:51;31.40;;;16.85;;
12048;SDS011;6085;49.452;8.502;2023-02-15T08:51:54;36.50;;;17.33;;
12048;SDS011;6085;49.452;8.502;2023-02-15T08:55:56;31.20;;;16.90;;
12048;SDS011;6085;49.452;8.502;2023-02-15T08:59:58;29.83;;;15.90;;
12048;SDS011;6085;49.452;8.502;2023-02-15T09:04:01;33.83;;;17.83;;
12048;SDS011;6085;49.452;8.502;2023-02-15T09:08:06;32.05;;;16.17;;
12048;SDS011;6085;49.452;8.502;2023-02-15T09:12:08;32.50;;;16.48;;
12048;SDS011;6085;49.452;8.502;2023-02-15T09:16:10;34.53;;;17.55;;
12048;SDS011;6085;49.452;8.502;2023-02-15T09:20:12;27.55;;;15.60;;
12048;SDS011;6085;49.452;8.502;2023-02-15T09:24:16;30.40;;;16.13;;
12048;SDS011;6085;49.452;8.502;2023-02-15T09:28:18;30.52;;;16.50;;
12048;SDS011;6085;49.452;8.502;2023-02-15T09:32:20;30.25;;;16.17;;
12048;SDS011;6085;49.452;8.502;2023-02-15T09:36:23;34.33;;;17.95;;
12048;SDS011;6085;49.452;8.502;2023-02-15T09:40:27;31.92;;;18.15;;
12048;SDS011;6085;49.452;8.502;2023-02-15T09:44:33;28.60;;;16.95;;
12048;SDS011;6085;49.452;8.502;2023-02-15T09:48:58;30.55;;;17.42;;
12048;SDS011;6085;49.452;8.502;2023-02-15T09:53:13;29.80;;;16.77;;
12048;SDS011;6085;49.452;8.502;2023-02-15T09:57:29;28.33;;;16.33;;
12048;SDS011;6085;49.452;8.502;2023-02-15T10:01:39;31.52;;;17.58;;
12048;SDS011;6085;49.452;8.502;2023-02-15T10:05:51;33.20;;;18.30;;
12048;SDS011;6085;49.452;8.502;2023-02-15T10:10:07;34.42;;;19.90;;
12048;SDS011;6085;49.452;8.502;2023-02-15T10:14:28;34.15;;;19.23;;
12048;SDS011;6085;49.452;8.502;2023-02-15T10:18:42;33.88;;;19.80;;
12048;SDS011;6085;49.452;8.502;2023-02-15T10:23:00;37.65;;;19.52;;
12048;SDS011;6085;49.452;8.502;2023-02-15T10:27:11;35.08;;;19.70;;
12048;SDS011;6085;49.452;8.502;2023-02-15T10:31:19;38.13;;;19.20;;
12048;SDS011;6085;49.452;8.502;2023-02-15T10:35:26;33.58;;;20.15;;
12048;SDS011;6085;49.452;8.502;2023-02-15T10:39:41;32.53;;;19.52;;
12048;SDS011;6085;49.452;8.502;2023-02-15T10:44:00;34.95;;;20.40;;
12048;SDS011;6085;49.452;8.502;2023-02-15T10:48:22;32.25;;;19.35;;
12048;SDS011;6085;49.452;8.502;2023-02-15T10:52:42;30.63;;;18.92;;
12048;SDS011;6085;49.452;8.502;2023-02-15T10:56:59;32.15;;;18.13;;
12048;SDS011;6085;49.452;8.502;2023-02-15T11:01:06;32.35;;;19.13;;
12048;SDS011;6085;49.452;8.502;2023-02-15T11:05:24;34.72;;;20.50;;
12048;SDS011;6085;49.452;8.502;2023-02-15T11:09:37;34.47;;;19.95;;
12048;SDS011;6085;49.452;8.502;2023-02-15T11:13:44;32.63;;;19.33;;
12048;SDS011;6085;49.452;8.502;2023-02-15T11:17:51;34.90;;;21.20;;
12048;SDS011;6085;49.452;8.502;2023-02-15T11:22:01;36.17;;;21.65;;
12048;SDS011;6085;49.452;8.502;2023-02-15T11:26:09;30.23;;;19.05;;
12048;SDS011;6085;49.452;8.502;2023-02-15T11:30:17;30.08;;;18.38;;
12048;SDS011;6085;49.452;8.502;2023-02-15T11:34:23;29.52;;;18.77;;
12048;SDS011;6085;49.452;8.502;2023-02-15T11:38:33;31.60;;;18.90;;
12048;SDS011;6085;49.452;8.502;2023-02-15T11:42:35;29.45;;;18.77;;
12048;SDS011;6085;49.452;8.502;2023-02-15T11:46:37;28.63;;;18.50;;
12048;SDS011;6085;49.452;8.502;2023-02-15T11:50:40;29.63;;;19.50;;
12048;SDS011;6085;49.452;8.502;2023-02-15T11:54:44;29.95;;;18.52;;
12048;SDS011;6085;49.452;8.502;2023-02-15T11:58:51;28.13;;;18.65;;
12048;SDS011;6085;49.452;8.502;2023-02-15T12:02:57;26.50;;;17.67;;
12048;SDS011;6085;49.452;8.502;2023-02-15T12:06:59;27.98;;;18.58;;
12048;SDS011;6085;49.452;8.502;2023-02-15T12:11:07;28.00;;;18.90;;
12048;SDS011;6085;49.452;8.502;2023-02-15T12:15:13;28.48;;;18.75;;
12048;SDS011;6085;49.452;8.502;2023-02-15T12:19:24;26.33;;;17.80;;
12048;SDS011;6085;49.452;8.502;2023-02-15T12:23:31;29.55;;;18.55;;
12048;SDS011;6085;49.452;8.502;2023-02-15T12:27:36;26.60;;;18.35;;
12048;SDS011;6085;49.452;8.502;2023-02-15T12:31:44;30.20;;;18.80;;
12048;SDS011;6085;49.452;8.502;2023-02-15T12:35:54;27.95;;;18.23;;
12048;SDS011;6085;49.452;8.502;2023-02-15T12:39:59;26.13;;;19.20;;
12048;SDS011;6085;49.452;8.502;2023-02-15T12:44:05;24.15;;;17.35;;
12048;SDS011;6085;49.452;8.502;2023-02-15T12:48:09;29.13;;;18.33;;
12048;SDS011;6085;49.452;8.502;2023-02-15T12:52:22;30.20;;;19.98;;
12048;SDS011;6085;49.452;8.502;2023-02-15T12:56:25;27.73;;;19.33;;
12048;SDS011;6085;49.452;8.502;2023-02-15T13:00:30;28.83;;;19.00;;
12048;SDS011;6085;49.452;8.502;2023-02-15T13:04:32;27.52;;;17.92;;
12048;SDS011;6085;49.452;8.502;2023-02-15T13:08:34;26.55;;;18.58;;
12048;SDS011;6085;49.452;8.502;2023-02-15T13:12:40;25.30;;;18.52;;
12048;SDS011;6085;49.452;8.502;2023-02-15T13:16:50;28.48;;;18.42;;
12048;SDS011;6085;49.452;8.502;2023-02-15T13:20:54;29.13;;;19.25;;
12048;SDS011;6085;49.452;8.502;2023-02-15T13:24:57;29.30;;;20.00;;
12048;SDS011;6085;49.452;8.502;2023-02-15T13:29:05;29.58;;;19.83;;
12048;SDS011;6085;49.452;8.502;2023-02-15T13:33:12;24.98;;;18.30;;
12048;SDS011;6085;49.452;8.502;2023-02-15T13:37:19;28.33;;;19.70;;
12048;SDS011;6085;49.452;8.502;2023-02-15T13:41:30;25.42;;;18.95;;
12048;SDS011;6085;49.452;8.502;2023-02-15T13:45:37;25.95;;;18.90;;
12048;SDS011;6085;49.452;8.502;2023-02-15T13:49:50;26.33;;;19.25;;
12048;SDS011;6085;49.452;8.502;2023-02-15T13:58:36;27.25;;;18.75;;
12048;SDS011;6085;49.452;8.502;2023-02-15T14:03:04;23.00;;;18.33;;
12048;SDS011;6085;49.452;8.502;2023-02-15T14:07:26;23.92;;;17.90;;
12048;SDS011;6085;49.452;8.502;2023-02-15T14:11:50;23.63;;;17.42;;
12048;SDS011;6085;49.452;8.502;2023-02-15T14:16:00;22.63;;;17.35;;
12048;SDS011;6085;49.452;8.502;2023-02-15T14:20:08;27.83;;;18.65;;
12048;SDS011;6085;49.452;8.502;2023-02-15T14:24:26;28.33;;;19.13;;
12048;SDS011;6085;49.452;8.502;2023-02-15T14:28:35;25.77;;;18.88;;
12048;SDS011;6085;49.452;8.502;2023-02-15T14:32:45;28.23;;;19.17;;
12048;SDS011;6085;49.452;8.502;2023-02-15T14:36:49;30.27;;;19.73;;
12048;SDS011;6085;49.452;8.502;2023-02-15T14:40:54;28.17;;;19.17;;
12048;SDS011;6085;49.452;8.502;2023-02-15T14:45:04;24.65;;;18.85;;
12048;SDS011;6085;49.452;8.502;2023-02-15T14:49:17;22.85;;;17.30;;
12048;SDS011;6085;49.452;8.502;2023-02-15T14:53:34;24.38;;;16.48;;
12048;SDS011;6085;49.452;8.502;2023-02-15T14:57:39;20.75;;;16.50;;
12048;SDS011;6085;49.452;8.502;2023-02-15T15:01:59;24.90;;;17.50;;
12048;SDS011;6085;49.452;8.502;2023-02-15T15:06:20;22.42;;;17.13;;
12048;SDS011;6085;49.452;8.502;2023-02-15T15:10:33;21.65;;;16.95;;
12048;SDS011;6085;49.452;8.502;2023-02-15T15:14:44;20.75;;;15.77;;
12048;SDS011;6085;49.452;8.502;2023-02-15T15:18:47;20.08;;;16.10;;
12048;SDS011;6085;49.452;8.502;2023-02-15T15:22:50;21.67;;;16.80;;
12048;SDS011;6085;49.452;8.502;2023-02-15T15:27:05;22.17;;;17.40;;
12048;SDS011;6085;49.452;8.502;2023-02-15T15:31:51;22.85;;;17.73;;
12048;SDS011;6085;49.452;8.502;2023-02-15T15:36:02;26.83;;;17.88;;
12048;SDS011;6085;49.452;8.502;2023-02-15T15:40:41;29.00;;;19.48;;
12048;SDS011;6085;49.452;8.502;2023-02-15T15:45:08;27.50;;;19.20;;
12048;SDS011;6085;49.452;8.502;2023-02-15T15:49:38;28.65;;;19.08;;
12048;SDS011;6085;49.452;8.502;2023-02-15T15:53:44;28.85;;;19.98;;
12048;SDS011;6085;49.452;8.502;2023-02-15T15:57:49;29.30;;;20.00;;
12048;SDS011;6085;49.452;8.502;2023-02-15T16:01:53;32.08;;;21.02;;
12048;SDS011;6085;49.452;8.502;2023-02-15T16:05:57;29.55;;;20.67;;
12048;SDS011;6085;49.452;8.502;2023-02-15T16:10:00;32.85;;;21.63;;
12048;SDS011;6085;49.452;8.502;2023-02-15T16:14:08;33.53;;;21.55;;
12048;SDS011;6085;49.452;8.502;2023-02-15T16:18:15;33.65;;;21.98;;
12048;SDS011;6085;49.452;8.502;2023-02-15T16:22:21;38.55;;;23.00;;
12048;SDS011;6085;49.452;8.502;2023-02-15T16:26:34;37.97;;;23.45;;
12048;SDS011;6085;49.452;8.502;2023-02-15T16:30:54;37.08;;;22.40;;
12048;SDS011;6085;49.452;8.502;2023-02-15T16:35:12;45.65;;;28.42;;
12048;SDS011;6085;49.452;8.502;2023-02-15T16:39:21;37.33;;;23.60;;
12048;SDS011;6085;49.452;8.502;2023-02-15T16:43:23;39.45;;;24.42;;
12048;SDS011;6085;49.452;8.502;2023-02-15T16:47:28;32.33;;;21.45;;
12048;SDS011;6085;49.452;8.502;2023-02-15T16:51:32;35.28;;;21.10;;
12048;SDS011;6085;49.452;8.502;2023-02-15T16:55:38;35.92;;;22.00;;
12048;SDS011;6085;49.452;8.502;2023-02-15T16:59:44;33.67;;;20.70;;
12048;SDS011;6085;49.452;8.502;2023-02-15T17:03:48;33.58;;;20.25;;
12048;SDS011;6085;49.452;8.502;2023-02-15T17:08:04;31.85;;;19.67;;
12048;SDS011;6085;49.452;8.502;2023-02-15T17:12:09;35.00;;;20.52;;
12048;SDS011;6085;49.452;8.502;2023-02-15T17:16:26;37.88;;;22.35;;
12048;SDS011;6085;49.452;8.502;2023-02-15T17:20:30;37.40;;;21.40;;
12048;SDS011;6085;49.452;8.502;2023-02-15T17:24:34;34.95;;;20.70;;
12048;SDS011;6085;49.452;8.502;2023-02-15T17:28:40;43.20;;;23.27;;
12048;SDS011;6085;49.452;8.502;2023-02-15T17:32:52;36.70;;;20.67;;
12048;SDS011;6085;49.452;8.502;2023-02-15T17:36:58;34.05;;;20.73;;
12048;SDS011;6085;49.452;8.502;2023-02-15T17:41:02;36.97;;;20.52;;
12048;SDS011;6085;49.452;8.502;2023-02-15T17:45:06;35.88;;;20.00;;
12048;SDS011;6085;49.452;8.502;2023-02-15T17:49:10;34.83;;;20.48;;
12048;SDS011;6085;49.452;8.502;2023-02-15T17:53:21;34.20;;;19.70;;
12048;SDS011;6085;49.452;8.502;2023-02-15T17:57:24;30.70;;;19.17;;
12048;SDS011;6085;49.452;8.502;2023-02-15T18:01:29;41.80;;;24.23;;
12048;SDS011;6085;49.452;8.502;2023-02-15T18:05:48;43.70;;;24.88;;
12048;SDS011;6085;49.452;8.502;2023-02-15T18:10:11;41.78;;;22.90;;
12048;SDS011;6085;49.452;8.502;2023-02-15T18:14:32;35.92;;;20.48;;
12048;SDS011;6085;49.452;8.502;2023-02-15T18:18:35;37.88;;;21.10;;
12048;SDS011;6085;49.452;8.502;2023-02-15T18:22:37;39.38;;;20.63;;
12048;SDS011;6085;49.452;8.502;2023-02-15T18:26:38;42.28;;;21.15;;
12048;SDS011;6085;49.452;8.502;2023-02-15T18:30:40;33.72;;;18.40;;
12048;SDS011;6085;49.452;8.502;2023-02-15T18:34:44;34.63;;;18.95;;
12048;SDS011;6085;49.452;8.502;2023-02-15T18:38:49;36.25;;;18.88;;
12048;SDS011;6085;49.452;8.502;2023-02-15T18:42:53;32.10;;;18.30;;
12048;SDS011;6085;49.452;8.502;2023-02-15T18:46:56;35.25;;;19.63;;
12048;SDS011;6085;49.452;8.502;2023-02-15T18:50:59;32.33;;;18.70;;
12048;SDS011;6085;49.452;8.502;2023-02-15T18:55:03;41.22;;;21.67;;
12048;SDS011;6085;49.452;8.502;2023-02-15T18:59:16;38.10;;;20.80;;
12048;SDS011;6085;49.452;8.502;2023-02-15T19:03:18;41.58;;;22.02;;
12048;SDS011;6085;49.452;8.502;2023-02-15T19:07:22;42.40;;;22.83;;
12048;SDS011;6085;49.452;8.502;2023-02-15T19:11:27;39.13;;;20.48;;
12048;SDS011;6085;49.452;8.502;2023-02-15T19:15:29;38.00;;;22.73;;
12048;SDS011;6085;49.452;8.502;2023-02-15T19:19:31;42.00;;;22.35;;
12048;SDS011;6085;49.452;8.502;2023-02-15T19:23:34;36.25;;;19.33;;
12048;SDS011;6085;49.452;8.502;2023-02-15T19:27:36;39.47;;;19.83;;
12048;SDS011;6085;49.452;8.502;2023-02-15T19:31:38;34.10;;;18.92;;
12048;SDS011;6085;49.452;8.502;2023-02-15T19:35:40;38.67;;;21.13;;
12048;SDS011;6085;49.452;8.502;2023-02-15T19:39:43;35.50;;;18.95;;
12048;SDS011;6085;49.452;8.502;2023-02-15T19:43:46;41.50;;;20.38;;
12048;SDS011;6085;49.452;8.502;2023-02-15T19:47:54;38.78;;;21.27;;
12048;SDS011;6085;49.452;8.502;2023-02-15T19:51:56;48.28;;;25.77;;
12048;SDS011;6085;49.452;8.502;2023-02-15T19:56:00;44.58;;;22.95;;
12048;SDS011;6085;49.452;8.502;2023-02-15T20:00:07;42.47;;;22.73;;
12048;SDS011;6085;49.452;8.502;2023-02-15T20:04:17;42.95;;;22.67;;
12048;SDS011;6085;49.452;8.502;2023-02-15T20:08:20;36.15;;;21.17;;
12048;SDS011;6085;49.452;8.502;2023-02-15T20:12:25;47.67;;;22.35;;
12048;SDS011;6085;49.452;8.502;2023-02-15T20:16:28;41.95;;;20.95;;
12048;SDS011;6085;49.452;8.502;2023-02-15T20:20:30;40.92;;;23.38;;
12048;SDS011;6085;49.452;8.502;2023-02-15T20:24:37;41.80;;;22.02;;
12048;SDS011;6085;49.452;8.502;2023-02-15T20:28:40;42.20;;;22.17;;
12048;SDS011;6085;49.452;8.502;2023-02-15T20:32:42;43.25;;;23.17;;
12048;SDS011;6085;49.452;8.502;2023-02-15T20:36:44;44.28;;;23.27;;
12048;SDS011;6085;49.452;8.502;2023-02-15T20:40:46;42.78;;;22.92;;
12048;SDS011;6085;49.452;8.502;2023-02-15T20:45:14;42.05;;;22.38;;
12048;SDS011;6085;49.452;8.502;2023-02-15T20:49:21;47.53;;;25.50;;
12048;SDS011;6085;49.452;8.502;2023-02-15T20:53:24;42.00;;;22.20;;
12048;SDS011;6085;49.452;8.502;2023-02-15T20:57:27;44.08;;;22.67;;
12048;SDS011;6085;49.452;8.502;2023-02-15T21:01:30;48.67;;;24.27;;
12048;SDS011;6085;49.452;8.502;2023-02-15T21:05:32;50.60;;;25.92;;
12048;SDS011;6085;49.452;8.502;2023-02-15T21:09:33;43.10;;;23.27;;
12048;SDS011;6085;49.452;8.502;2023-02-15T21:13:35;42.53;;;22.75;;
12048;SDS011;6085;49.452;8.502;2023-02-15T21:17:39;52.67;;;27.45;;
12048;SDS011;6085;49.452;8.502;2023-02-15T21:21:41;44.25;;;25.40;;
12048;SDS011;6085;49.452;8.502;2023-02-15T21:25:43;43.38;;;23.67;;
12048;SDS011;6085;49.452;8.502;2023-02-15T21:29:45;46.13;;;24.92;;
12048;SDS011;6085;49.452;8.502;2023-02-15T21:33:48;46.50;;;25.08;;
12048;SDS011;6085;49.452;8.502;2023-02-15T21:37:51;49.25;;;27.02;;
12048;SDS011;6085;49.452;8.502;2023-02-15T21:41:53;49.78;;;25.38;;
12048;SDS011;6085;49.452;8.502;2023-02-15T21:46:14;46.92;;;23.65;;
12048;SDS011;6085;49.452;8.502;2023-02-15T21:50:35;45.55;;;25.50;;
12048;SDS011;6085;49.452;8.502;2023-02-15T21:54:56;45.25;;;24.60;;
12048;SDS011;6085;49.452;8.502;2023-02-15T21:58:58;50.70;;;25.23;;
12048;SDS011;6085;49.452;8.502;2023-02-15T22:02:59;45.35;;;22.33;;
12048;SDS011;6085;49.452;8.502;2023-02-15T22:07:03;47.25;;;25.92;;
12048;SDS011;6085;49.452;8.502;2023-02-15T22:11:07;52.42;;;29.02;;
12048;SDS011;6085;49.452;8.502;2023-02-15T22:15:16;46.13;;;25.02;;
12048;SDS011;6085;49.452;8.502;2023-02-15T22:19:19;49.08;;;26.13;;
12048;SDS011;6085;49.452;8.502;2023-02-15T22:23:22;51.90;;;26.33;;
12048;SDS011;6085;49.452;8.502;2023-02-15T22:27:24;43.15;;;23.42;;
12048;SDS011;6085;49.452;8.502;2023-02-15T22:31:28;50.47;;;26.30;;
12048;SDS011;6085;49.452;8.502;2023-02-15T22:35:31;45.28;;;24.67;;
12048;SDS011;6085;49.452;8.502;2023-02-15T22:39:37;40.13;;;22.42;;
12048;SDS011;6085;49.452;8.502;2023-02-15T22:43:39;46.00;;;24.40;;
12048;SDS011;6085;49.452;8.502;2023-02-15T22:47:42;42.90;;;24.65;;
12048;SDS011;6085;49.452;8.502;2023-02-15T22:51:46;45.45;;;24.33;;
12048;SDS011;6085;49.452;8.502;2023-02-15T22:55:50;47.25;;;24.60;;
12048;SDS011;6085;49.452;8.502;2023-02-15T22:59:53;43.60;;;23.17;;
12048;SDS011;6085;49.452;8.502;2023-02-15T23:03:55;50.28;;;23.48;;
12048;SDS011;6085;49.452;8.502;2023-02-15T23:07:57;54.60;;;26.52;;
12048;SDS011;6085;49.452;8.502;2023-02-15T23:12:00;48.83;;;24.88;;
12048;SDS011;6085;49.452;8.502;2023-02-15T23:16:04;70.18;;;30.60;;
12048;SDS011;6085;49.452;8.502;2023-02-15T23:20:08;53.28;;;26.80;;
12048;SDS011;6085;49.452;8.502;2023-02-15T23:24:14;70.32;;;30.98;;
12048;SDS011;6085;49.452;8.502;2023-02-15T23:28:22;61.13;;;28.98;;
12048;SDS011;6085;49.452;8.502;2023-02-15T23:32:27;68.53;;;29.75;;
12048;SDS011;6085;49.452;8.502;2023-02-15T23:36:29;71.97;;;23.17;;
12048;SDS011;6085;49.452;8.502;2023-02-15T23:40:32;92.22;;;23.10;;
12048;SDS011;6085;49.452;8.502;2023-02-15T23:44:53;77.88;;;24.77;;
12048;SDS011;6085;49.452;8.502;2023-02-15T23:48:56;109.53;;;26.13;;
12048;SDS011;6085;49.452;8.502;2023-02-15T23:52:57;121.28;;;25.80;;
12048;SDS011;6085;49.452;8.502;2023-02-15T23:57:00;122.72;;;26.98;;
